Time;durP1;ratioP1;P1;durP2;ratioP2;P2;SDS_P1;SDS_P2;PMS_P1;PMS_P2;Temp;Humidity;BMP_temperature;BMP_pressure;BME280_temperature;BME280_humidity;BME280_pressure;Samples;Min_cycle;Max_cycle;Signal;HPM_P1;HPM_P2
2022/05/24 00:01:29;;;;;;;21.65;10.95;;;12.90;99.90;;;;;;5038713;28;20481;-77
2022/05/24 00:03:56;;;;;;;19.65;11.52;;;12.90;99.90;;;;;;5051743;28;20053;-76
2022/05/24 00:06:30;;;;;;;19.40;11.50;;;12.90;99.90;;;;;;5052930;28;20049;-76
2022/05/24 00:08:56;;;;;;;23.73;14.18;;;12.90;99.90;;;;;;5053176;28;20037;-76
2022/05/24 00:11:21;;;;;;;19.40;13.02;;;12.80;99.90;;;;;;5052214;28;20118;-76
2022/05/24 00:13:47;;;;;;;23.38;13.65;;;12.80;99.90;;;;;;5052936;28;20055;-77
2022/05/24 00:16:12;;;;;;;24.33;13.95;;;12.80;99.90;;;;;;5052643;28;20484;-76
2022/05/24 00:18:38;;;;;;;24.10;13.07;;;12.70;99.90;;;;;;5052354;28;20106;-76
2022/05/24 00:21:05;;;;;;;26.55;14.48;;;12.70;99.90;;;;;;5052506;28;20053;-76
2022/05/24 00:23:32;;;;;;;19.77;14.02;;;12.60;99.90;;;;;;5052690;28;20036;-77
2022/05/24 00:26:06;;;;;;;23.33;14.48;;;12.50;99.90;;;;;;5052304;28;20036;-76
2022/05/24 00:28:34;;;;;;;24.33;13.90;;;12.50;99.90;;;;;;5052758;28;20033;-76
2022/05/24 00:31:00;;;;;;;24.80;13.98;;;12.60;99.90;;;;;;5052236;28;20041;-76
2022/05/24 00:33:26;;;;;;;25.00;14.30;;;12.50;99.90;;;;;;5052841;28;20041;-76
2022/05/24 00:35:53;;;;;;;25.67;12.38;;;12.30;99.90;;;;;;5052469;28;20566;-76
2022/05/24 00:38:26;;;;;;;19.30;11.60;;;12.10;99.90;;;;;;5051722;28;20041;-76
2022/05/24 00:41:02;;;;;;;24.17;10.77;;;12.10;99.90;;;;;;5050941;28;20049;-76
2022/05/24 00:43:31;;;;;;;24.73;11.93;;;12.00;99.90;;;;;;5052501;28;20045;-76
2022/05/24 00:46:05;;;;;;;19.88;10.98;;;11.90;99.90;;;;;;5052138;28;20409;-76
2022/05/24 00:48:36;;;;;;;15.30;9.32;;;11.80;99.90;;;;;;5050898;28;20116;-76
2022/05/24 00:51:05;;;;;;;13.63;9.20;;;11.70;99.90;;;;;;5052062;28;20041;-76
2022/05/24 00:53:41;;;;;;;17.38;8.75;;;11.60;99.90;;;;;;5052502;28;20049;-76
2022/05/24 00:56:10;;;;;;;;;;;11.60;99.90;;;;;;5052669;28;20070;-76
2022/05/24 00:58:42;;;;;;;16.63;9.52;;;11.50;99.90;;;;;;5052067;28;19928;-76
2022/05/24 01:01:18;;;;;;;20.20;10.65;;;11.40;99.90;;;;;;5051962;28;20049;-76
2022/05/24 01:03:43;;;;;;;21.15;11.82;;;11.40;99.90;;;;;;5052565;28;20044;-76
2022/05/24 01:06:09;;;;;;;22.92;11.63;;;11.30;99.90;;;;;;5052428;28;20400;-75
2022/05/24 01:08:34;;;;;;;21.65;11.38;;;11.20;99.90;;;;;;5050644;28;20056;-76
2022/05/24 01:11:01;;;;;;;22.35;12.43;;;11.20;99.90;;;;;;5052167;28;20048;-76
2022/05/24 01:13:30;;;;;;;21.38;12.38;;;10.40;99.90;;;;;;5054907;28;20127;-76
2022/05/24 01:15:55;;;;;;;29.67;13.43;;;11.10;99.90;;;;;;5055864;28;20049;-76
2022/05/24 01:18:23;;;;;;;27.38;14.52;;;11.00;99.90;;;;;;5055537;28;20115;-76
2022/05/24 01:20:54;;;;;;;27.85;14.70;;;11.00;99.90;;;;;;5056165;28;20048;-76
2022/05/24 01:23:48;;;;;;;24.80;14.32;;;11.00;99.90;;;;;;5056012;28;20045;-76
2022/05/24 01:26:35;;;;;;;26.48;14.02;;;11.00;99.90;;;;;;5055484;28;20509;-74
2022/05/24 01:29:05;;;;;;;33.92;15.80;;;11.00;99.90;;;;;;5035977;28;20042;-73
2022/05/24 01:36:09;;;;;;;32.45;16.75;;;11.00;99.90;;;;;;5050147;28;20040;-76
2022/05/24 01:37:04;;;;;;;34.60;16.50;;;10.90;99.90;;;;;;5055763;28;20071;-76
2022/05/24 01:39:30;;;;;;;36.63;18.17;;;10.90;99.90;;;;;;5055391;28;20515;-76
2022/05/24 01:41:58;;;;;;;36.47;17.15;;;10.90;99.90;;;;;;5055383;28;20041;-76
2022/05/24 01:44:40;;;;;;;31.38;17.15;;;11.00;99.90;;;;;;5055593;28;20060;-76
2022/05/24 01:47:05;;;;;;;28.15;17.45;;;11.00;99.90;;;;;;5055199;28;20080;-76
2022/05/24 01:49:39;;;;;;;33.25;16.55;;;11.00;99.90;;;;;;5055468;28;20056;-76
2022/05/24 01:52:27;;;;;;;30.80;16.23;;;11.00;99.90;;;;;;5055491;28;20106;-76
2022/05/24 01:55:03;;;;;;;35.75;16.17;;;11.00;99.90;;;;;;5055535;28;20471;-76
2022/05/24 01:57:37;;;;;;;27.40;15.80;;;11.10;99.90;;;;;;5054112;28;20052;-76
2022/05/24 02:00:07;;;;;;;26.17;15.88;;;11.10;99.90;;;;;;5085241;22;20045;-83
2022/05/24 02:02:33;;;;;;;28.77;15.45;;;11.10;99.90;;;;;;5037999;28;20041;-85
2022/05/24 02:04:59;;;;;;;29.75;17.00;;;11.10;99.90;;;;;;5020043;28;20371;-85
2022/05/24 02:07:26;;;;;;;26.48;16.10;;;11.20;99.90;;;;;;5021194;28;20038;-85
2022/05/24 02:09:54;;;;;;;29.27;16.15;;;11.20;99.90;;;;;;5022918;28;20489;-85
2022/05/24 02:12:28;;;;;;;31.65;17.20;;;11.30;99.90;;;;;;5039480;28;20041;-83
2022/05/24 02:15:05;;;;;;;33.60;16.67;;;11.30;99.90;;;;;;5039520;28;20049;-83
2022/05/24 02:17:52;;;;;;;32.17;16.33;;;11.20;99.90;;;;;;5026002;28;20563;-83
2022/05/24 02:20:20;;;;;;;;;;;11.20;99.90;;;;;;5016616;28;20069;-83
2022/05/24 02:22:47;;;;;;;26.95;14.70;;;11.30;99.90;;;;;;5022271;28;19971;-83
2022/05/24 02:25:34;;;;;;;25.85;13.88;;;11.40;99.90;;;;;;5039075;28;20041;-83
2022/05/24 02:28:02;;;;;;;25.05;14.73;;;11.50;99.90;;;;;;5039188;28;20100;-84
2022/05/24 02:30:29;;;;;;;32.97;13.93;;;11.60;99.90;;;;;;5039874;28;20485;-84
2022/05/24 02:32:55;;;;;;;26.20;15.55;;;11.60;99.90;;;;;;5039870;28;20052;-84
2022/05/24 02:35:22;;;;;;;26.17;13.45;;;11.60;99.90;;;;;;5021490;28;20045;-84
2022/05/24 02:37:47;;;;;;;28.33;14.57;;;11.60;99.90;;;;;;4986850;28;20375;-84
2022/05/24 02:42:58;;;;;;;39.92;18.17;;;11.70;99.90;;;;;;5039966;28;20508;-84
2022/05/24 02:45:24;;;;;;;37.17;18.45;;;11.80;99.90;;;;;;5039632;28;20041;-84
2022/05/24 02:47:50;;;;;;;37.85;18.02;;;11.80;99.90;;;;;;5023120;28;20061;-85
2022/05/24 02:50:16;;;;;;;35.22;18.15;;;11.80;99.90;;;;;;5039737;28;20045;-85
2022/05/24 02:52:42;;;;;;;30.55;18.45;;;11.80;99.90;;;;;;5041231;28;20144;-84
2022/05/24 02:55:10;;;;;;;34.63;19.83;;;11.90;99.90;;;;;;5055754;28;20072;-85
2022/05/24 02:57:36;;;;;;;37.13;20.17;;;12.00;99.90;;;;;;5038190;28;20099;-84
2022/05/24 03:00:08;;;;;;;36.78;20.90;;;12.10;99.90;;;;;;5037711;28;20054;-84
2022/05/24 03:02:34;;;;;;;42.28;22.00;;;12.10;99.90;;;;;;5039839;28;20044;-85
2022/05/24 03:05:00;;;;;;;41.97;22.33;;;12.10;99.90;;;;;;5038968;28;20046;-84
2022/05/24 03:10:10;;;;;;;40.60;24.60;;;12.20;99.90;;;;;;5033185;28;20053;-85
2022/05/24 03:15:20;;;;;;;37.75;21.95;;;12.20;99.90;;;;;;5038339;28;20359;-84
2022/05/24 03:17:45;;;;;;;41.88;23.48;;;12.30;99.90;;;;;;5023351;28;20137;-84
2022/05/24 03:20:11;;;;;;;53.10;27.80;;;12.30;99.90;;;;;;5032893;28;20104;-85
2022/05/24 03:22:37;;;;;;;50.15;26.90;;;12.30;99.90;;;;;;5039322;28;20049;-85
2022/05/24 03:25:03;;;;;;;51.03;25.52;;;12.40;99.90;;;;;;5038024;28;20115;-85
2022/05/24 03:27:28;;;;;;;52.10;26.60;;;12.30;99.90;;;;;;5036955;28;20041;-85
2022/05/24 03:29:54;;;;;;;56.85;29.42;;;12.40;99.90;;;;;;5037382;28;20042;-84
2022/05/24 03:32:20;;;;;;;63.53;29.08;;;12.40;99.90;;;;;;5039502;28;20063;-84
2022/05/24 03:34:45;;;;;;;57.10;29.08;;;12.40;99.90;;;;;;5037966;28;20037;-85
2022/05/24 03:37:11;;;;;;;58.45;29.90;;;12.40;99.90;;;;;;5022184;28;20068;-84
2022/05/24 03:39:37;;;;;;;64.85;32.40;;;12.50;99.90;;;;;;5021857;28;20057;-85
2022/05/24 03:42:03;;;;;;;63.28;30.75;;;12.50;99.90;;;;;;5038829;28;20046;-84
2022/05/24 03:44:29;;;;;;;65.70;33.70;;;12.60;99.90;;;;;;5040248;28;20041;-84
2022/05/24 03:46:55;;;;;;;74.60;34.40;;;12.60;99.90;;;;;;5039871;28;20045;-85
2022/05/24 03:49:21;;;;;;;71.93;34.95;;;12.60;99.90;;;;;;5035377;28;20053;-85
2022/05/24 03:51:47;;;;;;;73.93;35.63;;;12.60;99.90;;;;;;5033713;28;20048;-85
2022/05/24 03:54:13;;;;;;;73.20;35.67;;;12.60;99.90;;;;;;5039254;28;20510;-84
2022/05/24 03:57:59;;;;;;;73.85;37.47;;;12.60;99.90;;;;;;5040147;28;20037;-84
2022/05/24 03:59:32;;;;;;;64.57;33.90;;;12.70;99.90;;;;;;5027954;28;20066;-85
2022/05/24 04:01:58;;;;;;;76.57;36.10;;;12.80;99.90;;;;;;5018273;28;20099;-85
2022/05/24 04:04:27;;;;;;;57.75;34.13;;;12.80;99.90;;;;;;5018100;28;20042;-85
2022/05/24 04:06:52;;;;;;;64.40;33.78;;;12.80;99.90;;;;;;5018100;28;20037;-85
2022/05/24 04:09:18;;;;;;;71.97;34.97;;;13.90;99.90;;;;;;5019848;28;20132;-85
2022/05/24 04:11:43;;;;;;;72.68;35.90;;;12.90;99.90;;;;;;5018400;28;20140;-83
2022/05/24 04:14:09;;;;;;;72.57;37.03;;;12.90;99.90;;;;;;5018734;28;20042;-84
2022/05/24 04:16:35;;;;;;;72.70;34.63;;;12.90;99.90;;;;;;5020905;28;20050;-84
2022/05/24 04:19:00;;;;;;;63.28;35.85;;;12.90;99.90;;;;;;5020519;28;20044;-85
2022/05/24 04:21:26;;;;;;;65.65;36.80;;;13.00;99.90;;;;;;5028605;28;20101;-85
2022/05/24 04:23:51;;;;;;;69.95;36.22;;;13.00;99.90;;;;;;5039201;28;20038;-84
2022/05/24 04:26:17;;;;;;;56.65;34.47;;;13.00;99.90;;;;;;5037822;28;20049;-84
2022/05/24 04:28:43;;;;;;;59.00;33.63;;;13.00;99.90;;;;;;5037311;28;20436;-84
2022/05/24 04:31:08;;;;;;;55.85;31.48;;;13.10;99.90;;;;;;5035986;28;20041;-85
2022/05/24 04:33:34;;;;;;;51.17;30.92;;;13.10;99.90;;;;;;5043388;28;20052;-85
2022/05/24 04:35:59;;;;;;;47.83;27.83;;;13.10;99.90;;;;;;5043663;28;20132;-86
2022/05/24 04:38:25;;;;;;;47.72;29.55;;;13.10;99.90;;;;;;5039613;28;20071;-85
2022/05/24 04:43:36;;;;;;;46.75;28.13;;;13.10;99.90;;;;;;5033850;28;20046;-85
2022/05/24 04:46:03;;;;;;;50.00;28.73;;;13.10;99.90;;;;;;5038131;28;20041;-85
2022/05/24 04:48:29;;;;;;;46.63;27.73;;;13.10;99.90;;;;;;5042015;28;20052;-84
2022/05/24 04:50:57;;;;;;;45.60;28.90;;;13.20;99.90;;;;;;5041802;28;20037;-85
2022/05/24 04:53:24;;;;;;;44.03;26.10;;;13.20;99.90;;;;;;5042699;28;20045;-85
2022/05/24 04:55:50;;;;;;;43.15;26.00;;;13.20;99.90;;;;;;5042642;28;20041;-85
2022/05/24 04:58:17;;;;;;;42.08;26.05;;;13.30;99.90;;;;;;5056927;28;20045;-84
2022/05/24 05:00:43;;;;;;;40.33;25.48;;;13.30;99.90;;;;;;5039600;28;20359;-85
2022/05/24 05:03:10;;;;;;;38.33;24.13;;;13.30;99.90;;;;;;5040612;28;20056;-85
2022/05/24 05:05:36;;;;;;;42.35;23.73;;;13.30;99.90;;;;;;5055884;28;20041;-85
2022/05/24 05:08:02;;;;;;;36.20;23.00;;;13.30;99.90;;;;;;5038190;28;20058;-84
2022/05/24 05:10:27;;;;;;;40.47;25.10;;;13.30;99.90;;;;;;5039632;28;20109;-84
2022/05/24 05:12:53;;;;;;;42.50;24.88;;;13.30;99.90;;;;;;5039646;28;20048;-85
2022/05/24 05:15:18;;;;;;;44.45;22.98;;;13.30;99.90;;;;;;5039361;28;20053;-84
2022/05/24 05:17:45;;;;;;;35.45;21.77;;;13.40;99.90;;;;;;5054569;28;20045;-84
2022/05/24 05:20:11;;;;;;;30.88;21.02;;;13.40;99.90;;;;;;5038701;28;20033;-85
2022/05/24 05:22:38;;;;;;;40.92;23.00;;;13.40;99.90;;;;;;5039202;28;20079;-85
2022/05/24 05:25:05;;;;;;;31.63;20.60;;;13.40;99.90;;;;;;5038298;28;20053;-85
2022/05/24 05:27:31;;;;;;;37.45;21.48;;;13.50;99.90;;;;;;5039617;28;20053;-84
2022/05/24 05:32:42;;;;;;;29.40;17.50;;;13.40;99.90;;;;;;5039828;28;20418;-85
2022/05/24 05:35:08;;;;;;;31.10;19.70;;;13.40;99.90;;;;;;5039308;28;20048;-84
2022/05/24 05:37:34;;;;;;;36.83;20.20;;;13.40;99.90;;;;;;5037952;28;20073;-85
2022/05/24 05:40:04;;;;;;;29.70;19.67;;;13.40;99.90;;;;;;5039351;28;20037;-84
2022/05/24 05:42:31;;;;;;;38.47;22.92;;;13.40;99.90;;;;;;5038327;28;20140;-85
2022/05/24 05:44:56;;;;;;;35.28;24.08;;;13.40;99.90;;;;;;5037532;28;20049;-84
2022/05/24 05:47:22;;;;;;;37.13;23.55;;;13.50;99.90;;;;;;5036938;28;20048;-84
2022/05/24 05:49:48;;;;;;;31.73;21.77;;;13.50;99.90;;;;;;5038861;28;20398;-84
2022/05/24 05:52:14;;;;;;;38.03;23.10;;;13.50;99.90;;;;;;5037942;28;20132;-83
2022/05/24 05:54:39;;;;;;;30.63;20.45;;;13.50;99.90;;;;;;5038861;28;20447;-85
2022/05/24 05:57:08;;;;;;;40.25;21.48;;;13.50;99.90;;;;;;5038368;28;20112;-84
2022/05/24 05:59:34;;;;;;;34.90;20.23;;;13.60;99.90;;;;;;5036994;28;20053;-85
2022/05/24 06:02:01;;;;;;;26.52;18.75;;;13.70;99.90;;;;;;5038408;28;20055;-84
2022/05/24 06:04:26;;;;;;;36.78;20.13;;;13.70;99.90;;;;;;5036105;28;20045;-84
2022/05/24 06:06:53;;;;;;;32.45;18.77;;;13.70;99.90;;;;;;5036823;28;20056;-84
2022/05/24 06:09:20;;;;;;;31.63;18.45;;;14.00;99.90;;;;;;5049953;28;20053;-84
2022/05/24 06:11:45;;;;;;;32.83;18.73;;;13.80;99.90;;;;;;5033805;28;20049;-84
2022/05/24 06:14:11;;;;;;;31.80;18.20;;;13.90;99.90;;;;;;5034522;28;20048;-84
2022/05/24 06:16:38;;;;;;;37.70;20.65;;;14.10;99.90;;;;;;5032856;28;20136;-85
2022/05/24 06:19:05;;;;;;;27.75;18.00;;;14.20;99.90;;;;;;5033862;28;20041;-84
2022/05/24 06:21:34;;;;;;;30.45;16.58;;;14.20;99.90;;;;;;5049384;28;20049;-84
2022/05/24 06:24:04;;;;;;;26.52;16.65;;;14.40;99.90;;;;;;5034204;28;20379;-84
2022/05/24 06:26:31;;;;;;;32.40;18.73;;;14.30;99.90;;;;;;5032246;28;20083;-84
2022/05/24 06:28:57;;;;;;;27.80;16.10;;;14.40;99.90;;;;;;5032114;28;20449;-84
2022/05/24 06:31:24;;;;;;;31.20;15.63;;;14.50;99.90;;;;;;5032266;28;20106;-84
2022/05/24 06:33:49;;;;;;;32.10;16.63;;;14.50;99.90;;;;;;5032735;28;20465;-84
2022/05/24 06:36:15;;;;;;;28.02;15.15;;;14.60;99.90;;;;;;5033286;28;20128;-84
2022/05/24 06:38:41;;;;;;;26.92;15.02;;;14.60;99.90;;;;;;5015296;28;20125;-84
2022/05/24 06:41:07;;;;;;;22.20;13.80;;;14.60;99.90;;;;;;5032925;28;20486;-84
2022/05/24 06:43:33;;;;;;;20.38;13.68;;;14.70;99.90;;;;;;5034027;28;20116;-83
2022/05/24 06:46:00;;;;;;;25.13;14.00;;;14.70;99.90;;;;;;5033069;28;20046;-83
2022/05/24 06:48:25;;;;;;;27.17;14.70;;;14.70;99.90;;;;;;5031164;28;20144;-84
2022/05/24 06:50:51;;;;;;;20.90;12.73;;;14.70;99.90;;;;;;5032264;28;20073;-84
2022/05/24 06:53:17;;;;;;;24.58;13.00;;;14.80;99.90;;;;;;5032356;28;20034;-84
2022/05/24 06:55:43;;;;;;;24.05;12.52;;;14.70;99.90;;;;;;5032080;28;20045;-84
2022/05/24 06:58:09;;;;;;;17.08;11.57;;;14.60;99.90;;;;;;5031436;28;20046;-84
2022/05/24 07:03:19;;;;;;;25.70;12.98;;;14.60;99.90;;;;;;5032273;28;20461;-84
2022/05/24 07:05:45;;;;;;;21.65;11.82;;;14.70;99.90;;;;;;5032333;28;20148;-84
2022/05/24 07:08:11;;;;;;;20.17;10.48;;;14.80;99.90;;;;;;5032202;28;20049;-84
2022/05/24 07:10:38;;;;;;;23.65;12.30;;;14.80;99.90;;;;;;5034138;28;20498;-84
2022/05/24 07:13:11;;;;;;;21.48;11.93;;;14.70;99.90;;;;;;5034851;28;20132;-82
2022/05/24 07:15:38;;;;;;;24.00;12.07;;;14.70;99.90;;;;;;5049828;28;20158;-82
2022/05/24 07:18:04;;;;;;;17.83;12.55;;;14.60;99.90;;;;;;5034546;28;20117;-82
2022/05/24 07:20:33;;;;;;;22.17;11.82;;;14.60;99.90;;;;;;5034353;28;20152;-82
2022/05/24 07:23:07;;;;;;;18.38;11.43;;;14.80;99.90;;;;;;5033191;28;20049;-82
2022/05/24 07:25:33;;;;;;;22.60;11.65;;;14.90;99.90;;;;;;5033234;28;20045;-84
2022/05/24 07:27:59;;;;;;;20.42;11.68;;;15.00;99.90;;;;;;5034592;28;20046;-83
2022/05/24 07:30:25;;;;;;;24.13;12.32;;;15.00;99.90;;;;;;5033693;28;20052;-84
2022/05/24 07:32:50;;;;;;;16.20;10.07;;;14.90;99.90;;;;;;5033589;28;20049;-81
2022/05/24 07:35:16;;;;;;;19.45;11.40;;;14.60;99.90;;;;;;5034502;28;20045;-82
2022/05/24 07:37:41;;;;;;;17.75;10.55;;;14.50;99.90;;;;;;5016890;28;20034;-84
2022/05/24 07:48:11;;;;;;;20.38;10.82;;;14.60;99.90;;;;;;5034445;28;20076;-83
2022/05/24 07:50:37;;;;;;;17.15;11.18;;;14.60;99.90;;;;;;5034914;28;20088;-82
2022/05/24 07:53:03;;;;;;;20.75;11.13;;;14.60;99.90;;;;;;5034990;28;20048;-82
2022/05/24 07:55:28;;;;;;;19.50;9.63;;;14.60;99.90;;;;;;5037819;28;20052;-83
2022/05/24 07:57:55;;;;;;;25.73;11.80;;;14.70;99.90;;;;;;5039908;28;20127;-82
2022/05/24 08:00:21;;;;;;;23.05;11.38;;;14.70;99.90;;;;;;5038561;28;20063;-84
2022/05/24 08:02:50;;;;;;;17.50;11.52;;;14.80;99.90;;;;;;5038711;28;20050;-83
2022/05/24 08:05:17;;;;;;;16.67;10.25;;;14.80;99.90;;;;;;5037956;28;20052;-83
2022/05/24 08:07:44;;;;;;;16.83;10.38;;;14.70;99.90;;;;;;5037470;28;20493;-84
2022/05/24 08:10:10;;;;;;;25.00;10.27;;;14.90;99.90;;;;;;5037971;28;20053;-84
2022/05/24 08:12:36;;;;;;;15.90;9.68;;;14.90;99.90;;;;;;5040467;28;20049;-83
2022/05/24 08:15:03;;;;;;;17.90;9.48;;;15.10;99.90;;;;;;5038906;28;20045;-83
2022/05/24 08:17:28;;;;;;;18.77;10.43;;;15.30;99.90;;;;;;5038993;28;20056;-83
2022/05/24 08:19:54;;;;;;;20.08;9.18;;;15.20;99.90;;;;;;5039371;28;20038;-83
2022/05/24 08:22:21;;;;;;;18.05;8.65;;;15.60;99.90;;;;;;5037579;28;20048;-83
2022/05/24 08:24:47;;;;;;;19.67;9.85;;;15.20;99.90;;;;;;5039763;28;20473;-83
2022/05/24 08:27:14;;;;;;;12.77;9.23;;;15.30;99.90;;;;;;5038236;28;20073;-84
2022/05/24 08:29:40;;;;;;;20.83;10.68;;;15.40;99.90;;;;;;5039127;28;20073;-83
2022/05/24 08:32:07;;;;;;;22.25;11.10;;;15.60;99.90;;;;;;5040414;28;20092;-83
2022/05/24 08:34:33;;;;;;;20.25;10.30;;;15.70;99.90;;;;;;5041047;28;20041;-83
2022/05/24 08:36:59;;;;;;;20.98;9.98;;;15.70;99.90;;;;;;5040334;28;20068;-83
2022/05/24 08:39:25;;;;;;;17.05;8.98;;;15.80;99.90;;;;;;5023458;28;20064;-84
2022/05/24 08:42:32;;;;;;;17.88;9.32;;;16.40;99.90;;;;;;5039289;28;20073;-83
2022/05/24 08:50:47;;;;;;;11.25;7.10;;;17.60;99.90;;;;;;5042385;28;20076;-84
2022/05/24 08:53:23;;;;;;;18.42;7.45;;;18.20;99.90;;;;;;5041049;28;20045;-84
2022/05/24 08:55:49;;;;;;;14.52;7.50;;;18.50;99.90;;;;;;5042474;28;20052;-83
2022/05/24 08:58:31;;;;;;;8.98;6.22;;;19.00;99.90;;;;;;5042852;28;20037;-83
2022/05/24 09:00:57;;;;;;;13.00;6.63;;;19.00;99.90;;;;;;5041672;28;20075;-83
2022/05/24 09:03:25;;;;;;;10.27;6.95;;;18.90;99.90;;;;;;5040685;28;20046;-83
2022/05/24 09:06:18;;;;;;;10.90;6.72;;;19.60;99.90;;;;;;5041127;28;20060;-84
2022/05/24 09:09:11;;;;;;;16.38;6.43;;;19.70;99.90;;;;;;5041481;28;20064;-83
2022/05/24 09:12:31;;;;;;;15.05;7.32;;;18.80;99.90;;;;;;5039994;28;20406;-83
2022/05/24 09:15:32;;;;;;;10.45;4.93;;;17.60;99.90;;;;;;5017283;28;20053;-84
2022/05/24 09:18:25;;;;;;;11.90;6.25;;;17.00;99.90;;;;;;5028022;28;20096;-84
2022/05/24 09:20:51;;;;;;;10.50;5.45;;;16.90;99.90;;;;;;5041639;28;20074;-83
2022/05/24 09:23:35;;;;;;;10.65;4.85;;;17.60;99.90;;;;;;5041534;28;20489;-84
2022/05/24 09:26:05;;;;;;;8.20;4.32;;;18.00;99.90;;;;;;5055677;28;20060;-84
2022/05/24 09:28:48;;;;;;;7.70;4.40;;;17.60;99.90;;;;;;5039876;28;20052;-84
2022/05/24 09:31:24;;;;;;;9.73;3.70;;;17.60;99.90;;;;;;5042228;28;20451;-84
2022/05/24 09:33:55;;;;;;;;;;;18.40;99.90;;;;;;5044276;28;20077;-85
2022/05/24 09:36:34;;;;;;;8.05;2.63;;;19.40;99.90;;;;;;5045928;28;19921;-85
2022/05/24 09:39:03;;;;;;;2.28;0.57;;;19.50;66.10;;;;;;5043600;28;20130;-85
2022/05/24 09:41:29;;;;;;;1.05;0.40;;;18.30;44.70;;;;;;5042957;28;20117;-84
2022/05/24 09:44:05;;;;;;;2.50;0.35;;;17.00;59.30;;;;;;5042133;28;20131;-85
2022/05/24 09:46:32;;;;;;;1.40;0.50;;;16.00;80.40;;;;;;5043881;28;20113;-84
2022/05/24 09:49:15;;;;;;;19.70;1.88;;;15.20;92.40;;;;;;5042229;28;20046;-83
2022/05/24 09:51:42;;;;;;;2.70;0.90;;;14.30;99.90;;;;;;5034503;28;20461;-83
2022/05/24 09:54:20;;;;;;;8.63;1.27;;;13.00;99.90;;;;;;5034280;28;20647;-82
2022/05/24 09:57:20;;;;;;;6.68;1.40;;;12.20;99.90;;;;;;5034457;28;20489;-81
2022/05/24 09:59:59;;;;;;;3.42;1.23;;;11.90;99.90;;;;;;5035411;28;20125;-80
2022/05/24 10:02:31;;;;;;;6.07;1.60;;;11.80;99.90;;;;;;5049584;28;20659;-80
2022/05/24 10:04:58;;;;;;;4.60;1.20;;;11.80;99.90;;;;;;5034359;28;20065;-80
2022/05/24 10:07:25;;;;;;;4.68;1.23;;;12.00;99.90;;;;;;5034649;28;20046;-81
2022/05/24 10:10:17;;;;;;;3.72;1.33;;;12.20;99.90;;;;;;5033346;28;20508;-81
2022/05/24 10:13:25;;;;;;;2.83;1.52;;;12.50;99.90;;;;;;5033570;28;20045;-82
2022/05/24 10:15:59;;;;;;;6.05;2.00;;;13.10;99.90;;;;;;5033781;28;20052;-81
2022/05/24 10:19:02;;;;;;;5.97;2.00;;;13.30;99.90;;;;;;5033496;28;20437;-81
2022/05/24 10:21:51;;;;;;;6.55;2.05;;;13.40;99.90;;;;;;5033249;28;20061;-81
2022/05/24 10:24:45;;;;;;;4.22;2.15;;;13.70;99.90;;;;;;5033230;28;20481;-81
2022/05/24 10:27:15;;;;;;;4.97;2.40;;;14.00;99.90;;;;;;5032975;28;20391;-81
2022/05/24 10:29:49;;;;;;;4.75;2.67;;;14.20;99.90;;;;;;5032600;28;20103;-81
2022/05/24 10:38:48;;;;;;;18.20;4.10;;;14.20;99.90;;;;;;5025049;28;20053;-82
2022/05/24 10:41:20;;;;;;;9.15;1.90;;;13.50;99.90;;;;;;5032177;28;20691;-81
2022/05/24 10:44:15;;;;;;;4.40;1.15;;;12.50;99.90;;;;;;5033329;28;20053;-81
2022/05/24 10:46:48;;;;;;;4.60;1.10;;;11.60;99.90;;;;;;5037587;28;20064;-80
2022/05/24 10:49:29;;;;;;;6.28;0.80;;;11.10;99.90;;;;;;5040656;28;20057;-81
2022/05/24 10:52:05;;;;;;;3.97;0.70;;;10.80;99.90;;;;;;5041183;28;20054;-81
2022/05/24 10:54:43;;;;;;;4.05;0.68;;;10.60;99.90;;;;;;5056311;28;20063;-80
2022/05/24 10:57:30;;;;;;;5.30;1.00;;;10.60;99.90;;;;;;5040668;28;20409;-80
2022/05/24 11:00:16;;;;;;;1.92;0.82;;;10.60;99.90;;;;;;5042357;28;20053;-80
2022/05/24 11:03:16;;;;;;;2.53;0.80;;;10.80;99.90;;;;;;5042100;28;20068;-80
2022/05/24 11:05:44;;;;;;;3.55;1.10;;;11.10;99.90;;;;;;5040490;28;20489;-81
2022/05/24 11:08:32;;;;;;;3.30;1.13;;;11.60;99.90;;;;;;5037610;28;20133;-77
2022/05/24 11:11:04;;;;;;;3.40;0.93;;;12.10;99.90;;;;;;5033863;28;20049;-79
2022/05/24 11:13:51;;;;;;;3.25;1.25;;;12.60;99.90;;;;;;5050204;28;20128;-78
2022/05/24 11:16:30;;;;;;;4.50;1.30;;;13.00;99.90;;;;;;5032703;28;20057;-82
2022/05/24 11:18:56;;;;;;;2.75;1.35;;;13.30;99.90;;;;;;5032688;28;20501;-83
2022/05/24 11:21:34;;;;;;;4.57;1.50;;;13.40;99.90;;;;;;5032681;28;20049;-82
2022/05/24 11:24:07;;;;;;;2.83;1.35;;;13.70;99.90;;;;;;5032774;28;20049;-82
2022/05/24 11:26:39;;;;;;;3.35;1.70;;;13.80;99.90;;;;;;5032189;28;20497;-82
2022/05/24 11:29:26;;;;;;;6.28;2.67;;;13.80;99.90;;;;;;5031600;28;20497;-82
2022/05/24 11:32:00;;;;;;;10.68;2.17;;;13.70;99.90;;;;;;5031484;28;20045;-82
2022/05/24 11:34:31;;;;;;;7.35;2.42;;;13.70;99.90;;;;;;5034962;28;20045;-81
2022/05/24 11:37:14;;;;;;;4.70;2.65;;;13.80;99.90;;;;;;5031175;28;20053;-80
2022/05/24 11:39:43;;;;;;;7.15;2.40;;;14.10;99.90;;;;;;5031090;28;20038;-81
2022/05/24 11:42:17;;;;;;;6.18;2.80;;;14.10;99.90;;;;;;5030686;28;20049;-80
2022/05/24 11:44:43;;;;;;;5.78;2.85;;;14.10;99.90;;;;;;5029397;28;20064;-79
2022/05/24 11:47:08;;;;;;;9.48;2.75;;;14.50;99.90;;;;;;5029787;28;20490;-79
2022/05/24 11:49:34;;;;;;;6.18;2.20;;;15.10;99.90;;;;;;5030608;28;20127;-78
2022/05/24 11:52:21;;;;;;;3.90;2.33;;;15.70;99.90;;;;;;5029977;28;20045;-78
2022/05/24 11:54:49;;;;;;;6.85;2.40;;;16.00;99.90;;;;;;5026672;28;20106;-78
2022/05/24 11:57:15;;;;;;;4.50;2.20;;;16.30;99.90;;;;;;5031379;28;20041;-78
2022/05/24 11:59:40;;;;;;;4.45;2.20;;;16.50;99.90;;;;;;5037364;28;20524;-78
2022/05/24 12:02:25;;;;;;;4.82;2.08;;;16.40;99.90;;;;;;5029082;28;20041;-78
2022/05/24 12:07:58;;;;;;;3.67;1.58;;;15.40;99.90;;;;;;5038886;28;20049;-78
2022/05/24 12:10:24;;;;;;;3.58;1.88;;;15.20;99.90;;;;;;5037786;28;20049;-78
2022/05/24 12:12:54;;;;;;;5.68;1.75;;;14.80;99.90;;;;;;5010330;28;20058;-79
2022/05/24 12:15:21;;;;;;;5.13;1.33;;;14.50;99.90;;;;;;5017408;28;20038;-78
2022/05/24 12:18:11;;;;;;;6.13;1.73;;;14.20;99.90;;;;;;5028779;28;20409;-78
2022/05/24 12:20:36;;;;;;;3.20;1.30;;;14.20;99.90;;;;;;5030699;28;20045;-79
2022/05/24 12:23:13;;;;;;;5.43;1.48;;;14.90;99.90;;;;;;5027985;28;20056;-78
2022/05/24 12:26:07;;;;;;;4.07;1.38;;;15.70;99.90;;;;;;5028821;28;20040;-80
2022/05/24 12:28:36;;;;;;;3.22;1.25;;;16.10;99.90;;;;;;5025499;28;20519;-81
2022/05/24 12:31:22;;;;;;;4.40;1.02;;;16.10;99.90;;;;;;5029406;28;20049;-80
2022/05/24 12:34:03;;;;;;;2.95;1.10;;;16.00;99.90;;;;;;5019106;28;20132;-80
2022/05/24 12:36:31;;;;;;;2.88;0.70;;;15.90;99.90;;;;;;5030840;28;20501;-81
2022/05/24 12:39:01;;;;;;;4.40;0.90;;;16.10;99.90;;;;;;5031868;28;20045;-82
2022/05/24 12:41:32;;;;;;;5.57;0.60;;;16.50;99.90;;;;;;5032361;28;20049;-82
2022/05/24 12:44:02;;;;;;;3.67;0.77;;;17.70;99.90;;;;;;5033041;28;20056;-82
2022/05/24 12:46:31;;;;;;;1.08;0.60;;;18.60;99.90;;;;;;5033110;28;20041;-82
2022/05/24 12:49:01;;;;;;;2.45;0.40;;;17.80;99.90;;;;;;5033160;28;20072;-81
2022/05/24 12:51:27;;;;;;;4.10;0.50;;;16.70;99.90;;;;;;5033210;28;20045;-82
2022/05/24 12:53:52;;;;;;;1.13;0.40;;;15.60;99.90;;;;;;5032988;28;20399;-82
2022/05/24 12:56:21;;;;;;;1.67;0.75;;;14.50;99.90;;;;;;5032576;28;20108;-82
2022/05/24 12:58:50;;;;;;;1.23;0.65;;;13.90;99.90;;;;;;5033015;28;20033;-82
2022/05/24 13:01:26;;;;;;;3.20;0.40;;;14.30;99.90;;;;;;5033021;28;20184;-82
2022/05/24 13:04:19;;;;;;;3.05;0.70;;;14.90;99.90;;;;;;5033387;28;20046;-83
2022/05/24 13:06:46;;;;;;;1.38;0.57;;;15.00;99.90;;;;;;5033211;28;20037;-82
2022/05/24 13:09:25;;;;;;;14.18;1.60;;;15.50;99.90;;;;;;5037297;28;20102;-82
2022/05/24 13:11:53;;;;;;;3.17;0.93;;;16.50;99.90;;;;;;5036973;28;20112;-82
2022/05/24 13:14:36;;;;;;;2.70;0.93;;;17.80;99.90;;;;;;5037190;28;20167;-82
2022/05/24 13:17:06;;;;;;;4.40;1.23;;;18.20;99.90;;;;;;5037064;28;20052;-82
2022/05/24 13:20:06;;;;;;;4.25;1.25;;;18.00;99.90;;;;;;5037026;28;20053;-82
2022/05/24 13:22:43;;;;;;;3.30;0.80;;;18.50;99.90;;;;;;5036744;28;20044;-82
2022/05/24 13:25:24;;;;;;;3.28;0.93;;;18.10;99.90;;;;;;5036588;28;20046;-81
2022/05/24 13:27:57;;;;;;;3.55;1.25;;;18.60;99.90;;;;;;5036982;28;20045;-81
2022/05/24 13:33:42;;;;;;;;;;;18.00;99.90;;;;;;5036723;28;20128;-82
2022/05/24 13:36:18;;;;;;;4.53;0.90;;;17.10;99.90;;;;;;5036662;28;20432;-81
2022/05/24 13:38:46;;;;;;;3.38;0.95;;;16.40;99.90;;;;;;5036611;28;20061;-82
2022/05/24 13:41:24;;;;;;;3.17;1.02;;;16.00;99.90;;;;;;5036327;28;20513;-81